Time;durP1;ratioP1;P1;durP2;ratioP2;P2;SDS_P1;SDS_P2;PMS_P1;PMS_P2;Temp;Humidity;BMP_temperature;BMP_pressure;BME280_temperature;BME280_humidity;BME280_pressure;Samples;Min_cycle;Max_cycle;Signal;HPM_P1;HPM_P2
2023/07/12 06:46:54;;;;;;;2.60;2.20;;;;;;;20.82;67.32;100057.29;111562;1249;24246;-46
2023/07/12 06:49:21;;;;;;;3.80;2.90;;;;;;;20.91;66.33;100059.88;111089;1249;22586;-46
2023/07/12 06:51:48;;;;;;;3.90;2.80;;;;;;;20.92;66.97;100056.60;110640;1249;25326;-46
2023/07/12 06:54:16;;;;;;;4.60;2.40;;;;;;;20.96;65.60;100055.55;112290;1249;23148;-46
2023/07/12 06:56:44;;;;;;;3.80;2.40;;;;;;;21.03;65.54;100051.50;110950;1249;22526;-41
2023/07/12 06:59:11;;;;;;;2.90;2.60;;;;;;;21.12;66.09;100050.90;111035;1249;22338;-41
2023/07/12 07:01:38;;;;;;;8.00;2.60;;;;;;;21.19;66.25;100051.79;112139;1249;22511;-42
2023/07/12 07:04:06;;;;;;;2.80;2.30;;;;;;;21.27;66.07;100056.40;110581;1249;22575;-41
2023/07/12 07:06:33;;;;;;;7.30;2.80;;;;;;;21.36;64.77;100051.76;110995;1249;22508;-39
2023/07/12 07:09:01;;;;;;;6.90;2.50;;;;;;;21.45;63.51;100053.61;110583;1249;22497;-41
2023/07/12 07:11:28;;;;;;;5.00;2.30;;;;;;;21.53;62.30;100050.55;111399;1249;22632;-40
2023/07/12 07:13:55;;;;;;;2.20;2.00;;;;;;;21.65;61.87;100046.58;111216;1249;22514;-46
2023/07/12 07:16:24;;;;;;;2.60;2.20;;;;;;;21.79;61.99;100044.51;110639;1249;22517;-49
2023/07/12 07:18:53;;;;;;;5.30;2.20;;;;;;;21.81;60.01;100040.67;110180;1249;24340;-42
2023/07/12 07:21:20;;;;;;;4.20;2.60;;;;;;;21.82;60.57;100039.89;111278;1249;23224;-46
2023/07/12 07:23:47;;;;;;;5.50;2.50;;;;;;;21.85;60.83;100040.96;110259;1249;23538;-45
2023/07/12 07:26:14;;;;;;;3.20;2.00;;;;;;;21.90;58.73;100041.27;110206;1249;24242;-46
2023/07/12 07:28:42;;;;;;;2.10;2.00;;;;;;;21.93;59.07;100037.36;110126;1249;22579;-47
2023/07/12 07:31:10;;;;;;;2.30;2.10;;;;;;;21.91;59.36;100037.84;110169;1249;26344;-46
2023/07/12 07:33:39;;;;;;;4.00;2.40;;;;;;;21.81;59.49;100039.73;110743;1249;22579;-46
2023/07/12 07:36:12;;;;;;;3.60;2.30;;;;;;;21.66;59.57;100042.83;110023;1249;25555;-46
2023/07/12 07:38:40;;;;;;;2.50;2.10;;;;;;;21.53;60.74;100040.63;110941;1249;25241;-46
2023/07/12 07:41:09;;;;;;;2.30;1.90;;;;;;;21.44;61.42;100043.90;109998;1249;25440;-46
2023/07/12 07:43:39;;;;;;;2.70;2.40;;;;;;;21.37;60.11;100050.65;110801;1249;25241;-46
2023/07/12 07:46:07;;;;;;;3.70;2.00;;;;;;;21.23;58.05;100051.11;110892;1249;23383;-41
2023/07/12 07:48:35;;;;;;;1.70;1.50;;;;;;;21.14;58.15;100050.27;111432;1249;22282;-40
2023/07/12 07:51:03;;;;;;;2.70;2.00;;;;;;;21.24;58.35;100047.86;111444;1249;22611;-45
2023/07/12 07:53:33;;;;;;;3.60;1.90;;;;;;;21.43;57.28;100037.90;111406;1249;23305;-45
2023/07/12 07:56:00;;;;;;;2.80;1.70;;;;;;;21.66;57.07;100038.21;112324;1249;23532;-46
2023/07/12 07:58:27;;;;;;;3.60;1.90;;;;;;;21.92;55.44;100033.19;110597;1249;25241;-46
2023/07/12 08:00:54;;;;;;;4.20;1.90;;;;;;;22.08;54.45;100025.61;111032;1249;25291;-47
2023/07/12 08:03:22;;;;;;;2.10;1.70;;;;;;;22.22;54.94;100023.32;111046;1249;26485;-46
2023/07/12 08:05:49;;;;;;;2.80;1.70;;;;;;;22.43;55.56;100029.15;110350;1249;25432;-47
2023/07/12 08:08:16;;;;;;;2.40;1.40;;;;;;;22.56;55.12;100031.24;111564;1249;23202;-46
2023/07/12 08:10:46;;;;;;;1.90;1.70;;;;;;;22.57;54.21;100032.65;112608;1249;23324;-46
2023/07/12 08:13:12;;;;;;;3.50;1.70;;;;;;;22.51;54.57;100035.66;112561;1249;22393;-47
2023/07/12 08:15:41;;;;;;;1.80;1.70;;;;;;;22.56;55.38;100038.92;112904;1249;22402;-47
2023/07/12 08:18:10;;;;;;;2.40;2.00;;;;;;;22.67;53.98;100040.80;112903;1249;22475;-47
2023/07/12 08:20:39;;;;;;;7.80;1.70;;;;;;;22.77;53.41;100041.86;110999;1249;22619;-41
2023/07/12 08:23:08;;;;;;;1.80;1.70;;;;;;;22.85;51.65;100039.27;111048;1249;22510;-38
2023/07/12 08:25:35;;;;;;;3.70;1.90;;;;;;;22.84;49.86;100039.89;109859;1249;26480;-48
2023/07/12 08:28:03;;;;;;;1.70;1.60;;;;;;;22.77;50.30;100036.54;110259;1249;22514;-40
2023/07/12 08:30:30;;;;;;;1.60;1.40;;;;;;;22.62;50.63;100036.27;110009;1249;24236;-40
2023/07/12 08:32:58;;;;;;;9.30;2.20;;;;;;;22.52;51.23;100031.52;110127;1249;22510;-46
2023/07/12 08:35:26;;;;;;;1.50;1.40;;;;;;;22.59;51.64;100035.54;109990;1249;22536;-46
2023/07/12 08:38:13;;;;;;;1.90;1.70;;;;;;;22.83;51.01;100027.86;109765;1249;22524;-41
2023/07/12 08:40:47;;;;;;;2.20;1.70;;;;;;;22.99;50.13;100031.95;110276;1249;22719;-47
2023/07/12 08:43:21;;;;;;;2.70;1.10;;;;;;;22.91;48.54;100033.98;110097;1249;22508;-41
2023/07/12 08:45:50;;;;;;;1.60;1.50;;;;;;;22.73;48.79;100033.20;110234;1249;22501;-46
2023/07/12 08:48:22;;;;;;;1.80;1.40;;;;;;;22.68;49.08;100030.59;110454;1249;22578;-47
2023/07/12 08:50:49;;;;;;;3.30;1.60;;;;;;;22.75;49.29;100037.71;110339;1249;22508;-41
2023/07/12 08:53:24;;;;;;;3.50;1.40;;;;;;;22.81;48.73;100038.98;109922;1249;22535;-45
2023/07/12 08:55:52;;;;;;;1.40;1.30;;;;;;;22.91;48.55;100032.98;109633;1249;25476;-40
2023/07/12 08:58:28;;;;;;;4.40;1.50;;;;;;;23.04;49.13;100031.48;110527;1249;22517;-46
2023/07/12 09:01:01;;;;;;;1.70;1.50;;;;;;;23.21;48.55;100031.11;109537;1249;24783;-41
2023/07/12 09:03:29;;;;;;;2.20;1.40;;;;;;;23.33;47.64;100030.55;110304;1249;24298;-41
2023/07/12 09:05:57;;;;;;;6.20;1.70;;;;;;;23.30;47.67;100028.29;110133;1249;22511;-41
2023/07/12 09:08:35;;;;;;;1.80;1.30;;;;;;;23.17;47.89;100030.60;110262;1249;25254;-41
2023/07/12 09:11:03;;;;;;;1.80;1.40;;;;;;;23.04;48.06;100030.08;109699;1249;25314;-41
2023/07/12 09:13:35;;;;;;;2.00;1.60;;;;;;;22.92;48.03;100024.88;110035;1249;22507;-43
2023/07/12 09:16:03;;;;;;;3.50;1.90;;;;;;;22.81;47.36;100024.58;109724;1249;25335;-40
2023/07/12 09:18:39;;;;;;;4.80;1.50;;;;;;;22.77;48.04;100015.36;110844;1249;22519;-41
2023/07/12 09:21:14;;;;;;;2.80;1.30;;;;;;;22.81;48.09;100009.45;109874;1249;25371;-46
2023/07/12 09:23:43;;;;;;;6.10;1.40;;;;;;;22.91;49.18;100007.70;110235;1249;22501;-42
2023/07/12 09:26:31;;;;;;;1.70;1.20;;;;;;;23.10;48.03;100008.08;109830;1249;22501;-40
2023/07/12 09:29:12;;;;;;;3.00;1.30;;;;;;;23.33;46.43;100002.84;110107;1249;22522;-41
2023/07/12 09:31:40;;;;;;;2.00;1.50;;;;;;;23.55;45.57;99999.79;109740;1249;22520;-41
2023/07/12 09:34:15;;;;;;;2.30;1.10;;;;;;;23.79;45.06;99999.30;110852;1249;22562;-42
2023/07/12 09:36:42;;;;;;;1.60;1.30;;;;;;;23.97;44.19;100002.30;111248;1249;24194;-46
2023/07/12 09:39:10;;;;;;;4.50;1.60;;;;;;;24.05;44.18;100001.99;110179;1249;22501;-39
2023/07/12 09:41:47;;;;;;;1.10;1.10;;;;;;;23.94;44.63;100003.39;109938;1249;25213;-39
2023/07/12 09:44:15;;;;;;;1.90;1.30;;;;;;;23.66;45.18;100003.44;111266;1249;22455;-46
2023/07/12 09:46:50;;;;;;;1.70;1.50;;;;;;;23.46;45.63;100003.91;111424;1249;22419;-41
2023/07/12 09:49:21;;;;;;;1.80;1.50;;;;;;;23.27;45.51;100004.94;111649;1249;22469;-40
2023/07/12 09:52:03;;;;;;;3.00;1.50;;;;;;;23.08;46.47;100012.44;112942;1249;22440;-41
2023/07/12 09:54:45;;;;;;;1.50;1.30;;;;;;;22.89;47.52;100021.65;112911;1249;23064;-41
2023/07/12 09:57:17;;;;;;;3.00;1.30;;;;;;;22.84;48.06;100011.60;112779;1249;23061;-41
2023/07/12 09:59:56;;;;;;;5.80;1.30;;;;;;;22.98;48.51;100012.10;111435;1249;22602;-46
2023/07/12 10:02:38;;;;;;;1.30;1.20;;;;;;;23.20;45.61;100014.95;111736;1249;22286;-46
2023/07/12 10:05:11;;;;;;;1.00;1.00;;;;;;;23.36;44.48;100014.94;112870;1249;22428;-40
2023/07/12 10:07:57;;;;;;;3.70;1.60;;;;;;;23.54;44.24;100015.67;112793;1249;22298;-41
2023/07/12 10:10:52;;;;;;;1.80;1.30;;;;;;;23.68;43.97;100014.00;112582;1249;22504;-42
2023/07/12 10:13:29;;;;;;;4.70;1.70;;;;;;;23.68;43.78;100015.41;112929;1249;22357;-41
2023/07/12 10:15:57;;;;;;;3.50;1.80;;;;;;;23.63;44.81;100021.40;112919;1249;22391;-42
2023/07/12 10:18:25;;;;;;;2.10;1.50;;;;;;;23.61;45.22;100018.30;111372;1249;25372;-42
2023/07/12 10:20:52;;;;;;;1.50;1.40;;;;;;;23.68;46.23;100012.92;110356;1249;25389;-41
2023/07/12 10:23:21;;;;;;;1.60;1.40;;;;;;;23.85;46.36;100010.52;109945;1249;26459;-47
2023/07/12 10:26:00;;;;;;;1.70;1.10;;;;;;;23.97;44.67;100018.90;110672;1249;24452;-41
2023/07/12 10:28:44;;;;;;;2.30;1.40;;;;;;;23.95;44.48;100022.41;110361;1249;25301;-41
2023/07/12 10:31:31;;;;;;;1.50;1.40;;;;;;;23.87;42.20;100022.89;110116;1249;22562;-47
2023/07/12 10:34:28;;;;;;;2.80;1.50;;;;;;;23.76;41.77;100026.55;110237;1249;22522;-42
2023/07/12 10:37:03;;;;;;;1.80;1.40;;;;;;;23.89;41.97;100021.70;109952;1249;22525;-46
2023/07/12 10:39:30;;;;;;;;;;;;;;;24.03;42.28;100022.27;109967;1249;22604;-46
2023/07/12 10:42:00;;;;;;;4.40;1.60;;;;;;;24.06;42.53;100023.69;110267;1249;22531;-39
2023/07/12 10:44:31;;;;;;;3.20;1.40;;;;;;;24.07;42.58;100024.16;109955;1249;22611;-47
2023/07/12 10:47:01;;;;;;;1.50;1.10;;;;;;;24.24;41.95;100022.04;109938;1249;22511;-42
2023/07/12 10:49:40;;;;;;;4.80;1.60;;;;;;;24.43;41.04;100018.05;110397;1249;22508;-42
2023/07/12 10:52:10;;;;;;;4.30;1.50;;;;;;;24.72;40.84;100017.00;110099;1249;25183;-42
2023/07/12 10:54:43;;;;;;;3.80;1.20;;;;;;;24.86;40.03;100013.96;110343;1249;26467;-42
2023/07/12 10:57:39;;;;;;;2.00;1.30;;;;;;;24.80;39.67;100015.22;109904;1249;25385;-40
2023/07/12 11:00:16;;;;;;;1.80;1.40;;;;;;;24.56;40.33;100012.95;109607;1249;25402;-46
2023/07/12 11:02:46;;;;;;;2.70;1.40;;;;;;;24.49;40.92;100007.20;110130;1249;25372;-41
2023/07/12 11:05:36;;;;;;;3.30;1.40;;;;;;;24.51;41.06;100010.80;109872;1249;25317;-46
2023/07/12 11:08:04;;;;;;;1.50;1.30;;;;;;;24.36;40.82;100010.65;109981;1249;22512;-40
2023/07/12 11:10:34;;;;;;;1.60;1.30;;;;;;;24.12;40.84;100007.48;109672;1249;24195;-40
2023/07/12 11:13:10;;;;;;;1.60;1.40;;;;;;;23.94;41.58;100007.30;109866;1249;22562;-40
2023/07/12 11:15:52;;;;;;;1.10;1.10;;;;;;;24.00;41.67;100006.04;109640;1249;22514;-47
2023/07/12 11:18:33;;;;;;;4.70;1.20;;;;;;;24.23;41.82;100008.75;110307;1249;25317;-42
2023/07/12 11:21:07;;;;;;;1.60;1.30;;;;;;;24.44;41.22;100008.20;110085;1249;24192;-41
2023/07/12 11:23:38;;;;;;;1.30;1.20;;;;;;;24.53;40.68;100013.34;110302;1249;22546;-42
2023/07/12 11:26:24;;;;;;;2.20;1.40;;;;;;;24.53;39.97;100009.09;110949;1249;22515;-46
2023/07/12 11:28:51;;;;;;;2.10;1.40;;;;;;;24.55;40.52;100012.34;111738;1249;22514;-41
2023/07/12 11:31:26;;;;;;;1.90;1.50;;;;;;;24.59;40.07;100010.30;109885;1249;22627;-40
2023/07/12 11:34:05;;;;;;;2.00;1.50;;;;;;;24.65;40.25;100011.51;110295;1249;22642;-47
2023/07/12 11:36:34;;;;;;;1.30;1.20;;;;;;;24.58;40.83;100015.02;110120;1249;22513;-40
2023/07/12 11:39:02;;;;;;;1.70;1.40;;;;;;;24.40;41.09;100011.69;110084;1249;22630;-40
2023/07/12 11:41:29;;;;;;;1.80;1.30;;;;;;;24.24;41.68;100017.80;109861;1249;22599;-40
2023/07/12 11:44:03;;;;;;;2.80;1.30;;;;;;;24.08;41.64;100016.40;109782;1249;26437;-46
2023/07/12 11:46:34;;;;;;;2.50;1.30;;;;;;;23.95;41.93;100017.39;110192;1249;22577;-41
2023/07/12 11:49:13;;;;;;;1.30;1.20;;;;;;;23.88;41.46;100009.44;110183;1238;24213;-39
2023/07/12 11:51:42;;;;;;;1.70;1.60;;;;;;;23.91;41.32;100014.95;110085;1249;25552;-41
2023/07/12 11:54:38;;;;;;;1.60;1.50;;;;;;;23.99;41.50;100018.42;109880;1249;22509;-47
2023/07/12 11:57:08;;;;;;;1.90;1.60;;;;;;;24.09;42.06;100018.34;110027;1249;24280;-42
2023/07/12 11:59:39;;;;;;;1.50;1.40;;;;;;;24.21;42.21;100016.91;110551;1249;26554;-40
2023/07/12 12:02:13;;;;;;;1.30;1.20;;;;;;;24.37;42.69;100025.36;111516;1249;22548;-40
2023/07/12 12:04:40;;;;;;;3.40;1.60;;;;;;;24.59;42.55;100024.02;110670;1249;23159;-45
2023/07/12 12:07:36;;;;;;;3.70;1.50;;;;;;;24.74;42.22;100026.84;110259;1249;22541;-47
2023/07/12 12:10:05;;;;;;;1.50;1.40;;;;;;;24.74;41.53;100031.30;109927;1249;22607;-41
2023/07/12 12:12:46;;;;;;;4.00;1.50;;;;;;;24.68;40.45;100030.44;110041;1249;23162;-41
2023/07/12 12:15:24;;;;;;;2.20;1.60;;;;;;;24.54;40.06;100030.61;111499;1250;22982;-46
2023/07/12 12:17:52;;;;;;;2.30;1.60;;;;;;;24.39;40.29;100021.38;112740;1249;22386;-41
2023/07/12 12:20:22;;;;;;;1.90;1.50;;;;;;;24.27;40.33;100020.47;112964;1249;23075;-41
2023/07/12 12:23:14;;;;;;;1.50;1.40;;;;;;;24.19;41.53;100021.31;111272;1249;25225;-40
2023/07/12 12:25:46;;;;;;;1.40;1.30;;;;;;;24.08;41.33;100023.36;110250;1249;25595;-41
2023/07/12 12:28:26;;;;;;;1.70;1.60;;;;;;;23.98;41.87;100022.36;112699;1249;22738;-41
2023/07/12 12:30:58;;;;;;;1.90;1.60;;;;;;;23.92;41.66;100019.52;112779;1249;23195;-45
2023/07/12 12:33:27;;;;;;;1.60;1.50;;;;;;;23.95;41.77;100016.70;112972;1249;22496;-40
2023/07/12 12:35:58;;;;;;;3.40;1.50;;;;;;;24.04;41.83;100016.69;112950;1249;22621;-41
2023/07/12 12:38:32;;;;;;;2.90;1.90;;;;;;;24.17;41.79;100015.73;112735;1249;22369;-46
2023/07/12 12:41:09;;;;;;;5.30;1.50;;;;;;;24.33;41.87;100015.62;110421;1249;22593;-40
2023/07/12 12:43:38;;;;;;;1.70;1.40;;;;;;;24.53;42.46;100018.17;109896;1250;22498;-46
2023/07/12 12:46:09;;;;;;;2.30;1.60;;;;;;;24.73;41.99;100016.39;110081;1249;22506;-46
2023/07/12 12:48:50;;;;;;;2.60;1.80;;;;;;;24.87;41.42;100004.76;109802;1249;25568;-46
2023/07/12 12:51:22;;;;;;;2.10;1.70;;;;;;;24.97;40.55;99999.31;109846;1250;22517;-40
2023/07/12 12:53:52;;;;;;;2.00;1.60;;;;;;;25.06;39.88;99999.31;110184;1249;23998;-40
2023/07/12 12:56:23;;;;;;;1.80;1.40;;;;;;;25.05;39.84;99999.69;109982;1249;24340;-47
2023/07/12 12:58:53;;;;;;;4.50;1.60;;;;;;;25.00;40.04;99997.02;109930;1249;25425;-41
2023/07/12 13:01:24;;;;;;;4.60;1.60;;;;;;;25.08;39.90;99992.21;110159;1249;22493;-46
2023/07/12 13:03:54;;;;;;;3.80;1.70;;;;;;;25.12;39.57;99987.00;109964;1249;22532;-47
2023/07/12 13:06:27;;;;;;;2.80;2.00;;;;;;;25.17;38.58;99990.35;110291;1249;23877;-40
2023/07/12 13:08:55;;;;;;;3.20;1.70;;;;;;;25.12;37.86;99986.27;110122;1249;22953;-41
2023/07/12 13:11:25;;;;;;;2.50;1.50;;;;;;;24.97;37.77;99987.91;110047;1249;22510;-46
2023/07/12 13:13:56;;;;;;;1.60;1.50;;;;;;;24.86;39.01;99987.39;110152;1249;22739;-46
2023/07/12 13:16:26;;;;;;;3.30;1.80;;;;;;;24.82;39.66;99987.48;110164;1249;24194;-41
2023/07/12 13:18:56;;;;;;;2.70;1.70;;;;;;;24.85;39.32;99986.73;109950;1244;22741;-47
2023/07/12 13:21:26;;;;;;;2.80;1.50;;;;;;;24.89;38.95;99987.86;109863;1250;24265;-47
2023/07/12 13:23:54;;;;;;;2.80;1.50;;;;;;;25.02;39.57;99987.81;109880;1249;24179;-46
2023/07/12 13:26:22;;;;;;;2.20;1.60;;;;;;;25.23;38.84;99984.27;110216;1249;22501;-41
2023/07/12 13:28:50;;;;;;;3.50;1.60;;;;;;;25.44;38.92;99988.09;109916;1249;22524;-40
2023/07/12 13:31:18;;;;;;;2.80;1.80;;;;;;;25.48;38.99;99985.83;110000;1247;25247;-46
2023/07/12 13:33:46;;;;;;;3.50;2.10;;;;;;;25.42;38.52;99979.64;109742;1249;22516;-45
2023/07/12 13:36:32;;;;;;;4.40;1.60;;;;;;;25.39;38.71;99972.66;110407;1249;22527;-47
2023/07/12 13:39:13;;;;;;;2.10;1.50;;;;;;;25.44;38.40;99968.05;110427;1249;22609;-47
2023/07/12 13:41:44;;;;;;;2.80;2.10;;;;;;;25.59;36.89;99964.73;109739;1249;24196;-46
2023/07/12 13:44:15;;;;;;;5.70;1.70;;;;;;;25.64;36.67;99962.06;109855;1249;25212;-47
2023/07/12 13:46:45;;;;;;;4.50;1.90;;;;;;;25.55;36.56;99968.27;109980;1249;22557;-41
2023/07/12 13:49:13;;;;;;;2.80;1.40;;;;;;;25.49;36.38;99971.52;110005;1249;22895;-40
2023/07/12 13:51:40;;;;;;;2.00;1.40;;;;;;;25.49;36.87;99973.79;110160;1249;24658;-47
2023/07/12 13:54:08;;;;;;;1.90;1.70;;;;;;;25.61;37.16;99979.64;110254;1249;25346;-41
2023/07/12 13:56:38;;;;;;;1.80;1.50;;;;;;;25.66;37.24;99978.54;110066;1249;22511;-40
2023/07/12 13:59:08;;;;;;;6.30;1.80;;;;;;;25.71;37.49;99970.58;109865;1249;22520;-41
2023/07/12 14:01:38;;;;;;;6.50;1.70;;;;;;;25.77;36.96;99970.19;109864;1249;22507;-46
2023/07/12 14:04:12;;;;;;;3.50;1.60;;;;;;;25.80;37.04;99961.73;109663;1249;22647;-43
2023/07/12 14:06:43;;;;;;;3.20;1.60;;;;;;;25.95;37.18;99963.05;110083;1239;25593;-42
2023/07/12 14:09:13;;;;;;;1.70;1.30;;;;;;;26.08;36.96;99968.73;110412;1249;22537;-40
2023/07/12 14:11:40;;;;;;;2.70;1.70;;;;;;;25.95;36.54;99964.83;110445;1249;22531;-41
2023/07/12 14:14:11;;;;;;;2.60;1.50;;;;;;;25.70;36.91;99962.77;110092;1249;22526;-43
2023/07/12 14:16:39;;;;;;;1.70;1.60;;;;;;;25.56;37.54;99963.35;110209;1249;23120;-41
2023/07/12 14:19:06;;;;;;;1.50;1.30;;;;;;;25.50;37.89;99963.04;110160;1249;24181;-40
2023/07/12 14:21:33;;;;;;;1.80;1.40;;;;;;;25.42;37.85;99963.91;110249;1249;25302;-41
2023/07/12 14:24:01;;;;;;;3.80;1.80;;;;;;;25.39;37.78;99962.16;110417;1249;22503;-40
2023/07/12 14:26:28;;;;;;;1.60;1.50;;;;;;;25.41;37.89;99967.56;110384;1249;25439;-47
2023/07/12 14:28:55;;;;;;;2.20;1.70;;;;;;;25.43;37.68;99970.63;110315;1249;22519;-48
2023/07/12 14:31:28;;;;;;;1.70;1.40;;;;;;;25.40;37.97;99973.16;111234;1249;22436;-40
2023/07/12 14:33:55;;;;;;;3.90;1.90;;;;;;;25.40;37.99;99978.70;112957;1249;22383;-46
2023/07/12 14:36:23;;;;;;;1.90;1.70;;;;;;;25.35;37.72;99981.33;111861;1249;22598;-45
2023/07/12 14:38:51;;;;;;;1.80;1.50;;;;;;;25.33;38.14;99984.13;110332;1249;22556;-40
2023/07/12 14:41:24;;;;;;;2.90;1.60;;;;;;;25.27;38.36;99987.23;109881;1249;22540;-47
2023/07/12 14:43:51;;;;;;;4.40;2.30;;;;;;;25.04;38.59;99991.02;109897;1249;22517;-41
2023/07/12 14:46:18;;;;;;;2.40;1.60;;;;;;;24.72;39.28;99993.45;109879;1249;22519;-47
2023/07/12 14:48:45;;;;;;;1.90;1.70;;;;;;;24.42;39.67;99994.94;111028;1249;22576;-41
2023/07/12 14:51:20;;;;;;;1.90;1.60;;;;;;;24.18;39.69;99985.37;110425;1249;22523;-45
2023/07/12 14:53:47;;;;;;;2.40;1.50;;;;;;;23.98;39.87;99980.02;109802;1249;22512;-40
2023/07/12 14:56:15;;;;;;;2.60;1.40;;;;;;;23.81;39.99;99974.77;111083;1249;22404;-47
2023/07/12 14:58:42;;;;;;;4.10;2.00;;;;;;;23.74;40.24;99972.01;112975;1249;22389;-47
2023/07/12 15:01:27;;;;;;;4.40;1.70;;;;;;;23.74;40.20;99971.60;112959;1249;23162;-42
2023/07/12 15:03:55;;;;;;;6.10;1.30;;;;;;;23.83;40.20;99972.69;111150;1249;22511;-42
2023/07/12 15:06:22;;;;;;;1.90;1.50;;;;;;;23.90;40.05;99970.32;112978;1249;22338;-41
2023/07/12 15:08:50;;;;;;;4.60;1.90;;;;;;;23.97;40.77;99967.23;112569;1249;25330;-41
2023/07/12 15:11:20;;;;;;;1.70;1.60;;;;;;;24.03;41.11;99968.45;110610;1249;24415;-42
2023/07/12 15:13:47;;;;;;;3.80;2.00;;;;;;;24.09;41.16;99970.80;110260;1249;23021;-40
2023/07/12 15:16:19;;;;;;;3.10;1.70;;;;;;;24.11;40.94;99972.04;110008;1249;24284;-39
2023/07/12 15:18:47;;;;;;;1.90;1.70;;;;;;;24.12;40.54;99973.09;110412;1249;22536;-45
2023/07/12 15:21:24;;;;;;;4.40;1.50;;;;;;;24.11;40.32;99971.89;109958;1249;22497;-41
2023/07/12 15:23:51;;;;;;;3.30;1.50;;;;;;;24.13;40.26;99974.46;109915;1249;25465;-41
2023/07/12 15:26:19;;;;;;;1.80;1.50;;;;;;;24.13;40.09;99970.54;110389;1249;211302;-40
2023/07/12 15:28:46;;;;;;;4.70;1.70;;;;;;;24.11;40.52;99975.29;110201;1249;23293;-41
2023/07/12 15:31:29;;;;;;;2.20;1.60;;;;;;;24.05;40.55;99980.11;112474;1249;22646;-41
2023/07/12 15:33:56;;;;;;;2.20;1.40;;;;;;;24.03;40.68;99975.58;112734;1249;22380;-42
2023/07/12 15:36:29;;;;;;;1.00;1.00;;;;;;;24.16;40.43;99969.95;111879;1249;22745;-42
2023/07/12 15:38:57;;;;;;;4.20;1.50;;;;;;;24.33;40.37;99969.98;109800;1249;22515;-42
2023/07/12 15:41:25;;;;;;;8.60;1.70;;;;;;;24.23;40.56;99970.63;110211;1249;23002;-40
2023/07/12 15:43:54;;;;;;;7.60;1.70;;;;;;;24.00;40.88;99969.74;110763;1249;22325;-46
2023/07/12 15:46:27;;;;;;;11.80;1.90;;;;;;;23.73;41.09;99967.61;111093;1249;22456;-46
2023/07/12 15:48:56;;;;;;;7.20;1.70;;;;;;;23.53;41.75;99968.55;112279;1249;22539;-40
2023/07/12 15:51:42;;;;;;;6.50;1.50;;;;;;;23.42;42.27;99965.49;110462;1249;22504;-41
2023/07/12 15:54:18;;;;;;;8.10;1.80;;;;;;;23.35;42.64;99966.40;110179;1249;22517;-46
2023/07/12 15:56:45;;;;;;;3.10;1.40;;;;;;;23.31;42.72;99974.27;110501;1249;22607;-40
2023/07/12 15:59:16;;;;;;;1.60;1.40;;;;;;;23.30;42.88;99976.51;109701;1249;22509;-41
2023/07/12 16:01:44;;;;;;;4.90;1.30;;;;;;;23.31;42.42;99972.34;111181;1249;22525;-48
2023/07/12 16:04:18;;;;;;;3.90;1.60;;;;;;;23.33;42.92;99973.83;110421;1249;22509;-46
2023/07/12 16:06:45;;;;;;;4.40;1.30;;;;;;;23.37;42.95;99974.87;110749;1249;22507;-46
2023/07/12 16:09:13;;;;;;;2.60;1.30;;;;;;;23.40;43.08;99973.09;110222;1249;25254;-41
2023/07/12 16:11:43;;;;;;;3.60;1.40;;;;;;;23.38;43.10;99976.77;110419;1249;22516;-40
2023/07/12 16:14:15;;;;;;;3.70;1.40;;;;;;;23.33;43.18;99985.23;110208;1249;22524;-46
2023/07/12 16:16:42;;;;;;;3.80;1.90;;;;;;;23.27;43.51;99982.19;110083;1249;22896;-45
2023/07/12 16:19:10;;;;;;;4.30;1.80;;;;;;;23.26;43.34;99985.62;110398;1249;25446;-46
2023/07/12 16:21:39;;;;;;;4.60;1.40;;;;;;;23.25;43.21;99985.50;109877;1249;24248;-40
2023/07/12 16:24:08;;;;;;;12.00;1.80;;;;;;;23.24;43.25;99983.20;110045;1249;24225;-46
2023/07/12 16:26:35;;;;;;;6.20;1.70;;;;;;;23.22;43.64;99977.46;110583;1249;22527;-47
2023/07/12 16:29:03;;;;;;;7.70;2.00;;;;;;;23.19;44.32;99973.92;110249;1249;22495;-47
2023/07/12 16:31:40;;;;;;;6.50;2.20;;;;;;;23.18;44.52;99976.30;109920;1249;22629;-41
2023/07/12 16:34:14;;;;;;;7.40;1.60;;;;;;;23.14;43.56;99971.53;110384;1249;22517;-41
2023/07/12 16:36:45;;;;;;;5.20;1.60;;;;;;;23.04;42.46;99971.91;110423;1249;22524;-44
2023/07/12 16:39:13;;;;;;;5.70;1.10;;;;;;;22.92;42.12;99974.76;110119;1249;25209;-47
2023/07/12 16:41:42;;;;;;;1.80;1.30;;;;;;;22.79;41.93;99972.95;110196;1249;22600;-40
2023/07/12 16:44:35;;;;;;;3.80;1.20;;;;;;;22.68;42.18;99977.67;110340;1249;23853;-47
2023/07/12 16:47:03;;;;;;;6.30;1.00;;;;;;;22.55;42.71;99976.59;110105;1249;25309;-40
2023/07/12 16:49:30;;;;;;;12.60;2.20;;;;;;;22.47;42.93;99977.01;110020;1249;24236;-46
2023/07/12 16:51:59;;;;;;;82.70;37.80;;;;;;;22.43;43.14;99976.00;110301;1249;22490;-41
2023/07/12 16:54:27;;;;;;;36.00;13.70;;;;;;;22.38;43.33;99979.84;110880;1249;22498;-46
2023/07/12 16:56:54;;;;;;;15.10;3.50;;;;;;;22.32;43.90;99979.79;112380;1249;22517;-40
